createdAt,value
2018-03-30T00:01:19.640Z,20.17
2018-03-30T00:03:49.078Z,21.30
2018-03-30T00:06:18.365Z,21.25
2018-03-30T00:08:47.929Z,22.25
2018-03-30T00:11:22.586Z,20.37
2018-03-30T00:13:52.010Z,17.77
2018-03-30T00:16:21.265Z,18.23
2018-03-30T00:18:50.595Z,16.97
2018-03-30T00:21:20.059Z,17.83
2018-03-30T00:23:49.350Z,18.62
2018-03-30T00:26:19.127Z,18.45
2018-03-30T00:28:49.806Z,17.80
2018-03-30T00:31:20.520Z,19.96
2018-03-30T00:33:51.256Z,19.44
2018-03-30T00:36:21.728Z,22.33
2018-03-30T00:38:52.788Z,18.62
2018-03-30T00:41:23.762Z,18.67
2018-03-30T00:43:54.879Z,18.85
2018-03-30T00:46:25.742Z,18.87
2018-03-30T00:48:57.274Z,17.73
2018-03-30T00:51:27.797Z,18.23
2018-03-30T00:53:58.491Z,17.38
2018-03-30T00:56:29.126Z,17.38
2018-03-30T00:58:59.732Z,17.87
2018-03-30T01:01:30.742Z,20.00
2018-03-30T01:04:01.799Z,19.62
2018-03-30T01:06:32.673Z,18.50
2018-03-30T01:09:03.816Z,22.42
2018-03-30T01:11:34.659Z,28.80
2018-03-30T01:14:05.141Z,27.15
2018-03-30T01:16:36.670Z,30.38
2018-03-30T01:19:07.737Z,21.42
2018-03-30T01:21:38.449Z,16.60
2018-03-30T01:24:09.547Z,17.02
2018-03-30T01:26:40.537Z,18.77
2018-03-30T01:29:11.556Z,18.55
2018-03-30T01:31:42.068Z,17.50
2018-03-30T01:34:12.768Z,16.83
2018-03-30T01:36:43.708Z,15.75
2018-03-30T01:39:14.821Z,15.35
2018-03-30T01:41:45.855Z,14.68
2018-03-30T01:44:16.889Z,14.00
2018-03-30T01:46:47.382Z,14.02
2018-03-30T01:49:17.949Z,14.00
2018-03-30T01:51:48.347Z,13.80
2018-03-30T01:54:18.876Z,14.13
2018-03-30T01:56:49.695Z,13.15
2018-03-30T01:59:20.758Z,13.75
2018-03-30T02:01:51.674Z,13.18
2018-03-30T02:04:24.479Z,14.43
2018-03-30T02:06:54.272Z,15.63
2018-03-30T02:09:24.807Z,14.55
2018-03-30T02:11:55.753Z,14.13
2018-03-30T02:14:26.848Z,13.62
2018-03-30T02:16:57.741Z,14.13
2018-03-30T02:19:28.815Z,13.62
2018-03-30T02:21:59.732Z,14.32
2018-03-30T02:24:30.834Z,13.55
2018-03-30T02:27:01.690Z,13.52
2018-03-30T02:29:32.385Z,13.96
2018-03-30T02:32:03.175Z,13.25
2018-03-30T02:34:33.903Z,13.05
2018-03-30T02:37:04.745Z,12.32
2018-03-30T02:39:35.769Z,13.07
2018-03-30T02:42:06.649Z,11.73
2018-03-30T02:44:37.807Z,12.10
2018-03-30T02:47:08.719Z,14.00
2018-03-30T02:49:39.819Z,13.75
2018-03-30T02:52:10.761Z,13.15
2018-03-30T02:54:41.859Z,12.85
2018-03-30T02:57:12.700Z,14.13
2018-03-30T02:59:43.839Z,15.65
2018-03-30T03:02:14.774Z,13.90
2018-03-30T03:04:45.464Z,13.96
2018-03-30T03:07:16.148Z,16.98
2018-03-30T03:09:46.811Z,16.15
2018-03-30T03:12:17.719Z,13.80
2018-03-30T03:14:48.776Z,12.23
2018-03-30T03:17:19.702Z,11.70
2018-03-30T03:19:50.755Z,10.82
2018-03-30T03:22:21.703Z,12.18
2018-03-30T03:24:52.399Z,11.62
2018-03-30T03:27:23.064Z,12.64
2018-03-30T03:29:53.804Z,11.68
2018-03-30T03:32:25.085Z,12.15
2018-03-30T03:34:55.162Z,12.23
2018-03-30T03:37:25.770Z,12.77
2018-03-30T03:39:56.850Z,13.43
2018-03-30T03:42:27.648Z,12.70
2018-03-30T03:44:58.795Z,13.88
2018-03-30T03:47:29.442Z,13.24
2018-03-30T03:49:59.979Z,12.90
2018-03-30T03:52:30.749Z,13.18
2018-03-30T03:55:01.761Z,13.13
2018-03-30T03:57:32.799Z,13.40
2018-03-30T04:00:03.467Z,11.62
2018-03-30T04:02:34.280Z,12.74
2018-03-30T04:05:04.884Z,14.40
2018-03-30T04:07:42.816Z,15.00
2018-03-30T04:10:12.186Z,23.85
2018-03-30T04:12:41.466Z,22.56
2018-03-30T04:15:10.879Z,24.52
2018-03-30T04:17:40.191Z,29.98
2018-03-30T04:20:09.458Z,36.22
2018-03-30T04:22:40.116Z,38.82
2018-03-30T04:25:10.881Z,40.75
2018-03-30T04:27:41.772Z,42.30
2018-03-30T04:30:12.790Z,39.78
2018-03-30T04:32:43.762Z,34.83
2018-03-30T04:35:15.129Z,38.42
2018-03-30T04:37:45.848Z,39.20
2018-03-30T04:40:16.762Z,38.38
2018-03-30T04:42:47.766Z,44.20
2018-03-30T04:45:18.932Z,43.25
2018-03-30T04:47:49.857Z,39.83
2018-03-30T04:50:20.862Z,35.45
2018-03-30T04:52:51.394Z,34.50
2018-03-30T04:55:22.448Z,36.28
2018-03-30T04:57:53.450Z,36.47
2018-03-30T05:00:24.497Z,27.75
2018-03-30T05:02:55.457Z,26.83
2018-03-30T05:05:26.516Z,27.13
2018-03-30T05:07:57.263Z,30.36
2018-03-30T05:10:27.827Z,32.58
2018-03-30T05:12:58.531Z,25.55
2018-03-30T05:15:29.609Z,28.45
2018-03-30T05:18:00.577Z,19.52
2018-03-30T05:20:32.031Z,22.75
2018-03-30T05:23:02.769Z,18.95
2018-03-30T05:25:33.843Z,14.35
2018-03-30T05:28:04.689Z,12.98
2018-03-30T05:30:35.768Z,17.17
2018-03-30T05:33:06.778Z,16.20
2018-03-30T05:35:37.774Z,13.77
2018-03-30T05:38:08.796Z,12.80
2018-03-30T05:40:39.872Z,13.65
2018-03-30T05:43:10.346Z,13.22
2018-03-30T05:45:41.135Z,12.82
2018-03-30T05:48:11.596Z,12.77
2018-03-30T05:50:42.672Z,12.63
2018-03-30T05:53:13.723Z,12.50
2018-03-30T05:55:44.803Z,14.02
2018-03-30T05:58:15.643Z,16.40
2018-03-30T06:00:46.691Z,20.83
2018-03-30T06:03:17.674Z,21.95
2018-03-30T06:05:48.732Z,26.17
2018-03-30T06:08:19.728Z,19.55
2018-03-30T06:10:51.758Z,15.75
2018-03-30T06:13:22.467Z,11.90
2018-03-30T06:15:53.259Z,12.06
2018-03-30T06:18:23.789Z,12.52
2018-03-30T06:20:54.919Z,13.02
2018-03-30T06:23:25.706Z,11.10
2018-03-30T06:25:57.931Z,12.34
2018-03-30T06:28:28.303Z,11.22
2018-03-30T06:30:58.857Z,12.30
2018-03-30T06:33:29.851Z,10.73
2018-03-30T06:36:00.925Z,11.25
2018-03-30T06:38:31.968Z,11.93
2018-03-30T06:41:02.467Z,11.82
2018-03-30T06:43:33.131Z,12.26
2018-03-30T06:46:03.987Z,11.85
2018-03-30T06:48:34.705Z,11.98
2018-03-30T06:51:05.806Z,11.27
2018-03-30T06:53:36.698Z,12.65
2018-03-30T06:56:07.413Z,11.90
2018-03-30T06:58:38.104Z,11.86
2018-03-30T07:01:09.038Z,12.13
2018-03-30T07:03:39.860Z,12.45
2018-03-30T07:06:10.768Z,13.82
2018-03-30T07:08:41.804Z,12.43
2018-03-30T07:11:12.951Z,12.98
2018-03-30T07:13:45.956Z,13.18
2018-03-30T07:16:16.032Z,12.04
2018-03-30T07:18:46.564Z,14.30
2018-03-30T07:21:17.459Z,12.62
2018-03-30T07:23:48.157Z,12.24
2018-03-30T07:26:18.983Z,11.57
2018-03-30T07:28:49.934Z,11.05
2018-03-30T07:31:21.539Z,11.88
2018-03-30T07:33:51.731Z,12.35
2018-03-30T07:36:22.708Z,11.70
2018-03-30T07:38:53.536Z,13.44
2018-03-30T07:41:24.356Z,12.58
2018-03-30T07:43:55.274Z,12.52
2018-03-30T07:46:25.976Z,12.30
2018-03-30T07:48:56.940Z,12.23
2018-03-30T07:51:27.900Z,12.98
2018-03-30T07:53:59.577Z,13.42
2018-03-30T07:56:30.557Z,13.96
2018-03-30T07:59:01.381Z,13.95
2018-03-30T08:01:32.344Z,12.42
2018-03-30T08:04:02.788Z,12.25
2018-03-30T08:06:33.544Z,12.98
2018-03-30T08:09:03.852Z,13.24
2018-03-30T08:11:34.787Z,13.05
2018-03-30T08:14:05.723Z,12.57
2018-03-30T08:16:36.715Z,12.05
2018-03-30T08:19:07.553Z,12.26
2018-03-30T08:21:38.279Z,12.38
2018-03-30T08:24:08.824Z,13.75
2018-03-30T08:26:39.813Z,12.43
2018-03-30T08:29:11.134Z,12.68
2018-03-30T08:31:42.117Z,11.85
2018-03-30T08:34:13.354Z,11.86
2018-03-30T08:36:44.830Z,11.10
2018-03-30T08:39:15.709Z,10.94
2018-03-30T08:41:47.413Z,11.26
2018-03-30T08:44:17.071Z,10.38
2018-03-30T08:46:47.910Z,10.02
2018-03-30T08:49:18.764Z,10.65
2018-03-30T08:51:49.537Z,10.27
2018-03-30T08:54:20.549Z,9.93
2018-03-30T08:56:51.600Z,11.30
2018-03-30T08:59:22.280Z,10.98
2018-03-30T09:01:52.917Z,10.32
2018-03-30T09:04:25.448Z,9.10
2018-03-30T09:06:56.288Z,8.08
2018-03-30T09:09:26.364Z,8.63
2018-03-30T09:11:57.729Z,9.20
2018-03-30T09:14:28.072Z,8.93
2018-03-30T09:16:59.885Z,8.68
2018-03-30T09:19:30.433Z,8.73
2018-03-30T09:22:00.331Z,8.45
2018-03-30T09:24:30.138Z,8.05
2018-03-30T09:27:01.112Z,8.77
2018-03-30T09:29:31.088Z,8.30
2018-03-30T09:32:01.998Z,7.54
2018-03-30T09:34:32.575Z,7.20
2018-03-30T09:37:03.249Z,7.80
2018-03-30T09:39:33.040Z,7.37
2018-03-30T09:42:03.866Z,7.85
2018-03-30T09:44:34.686Z,6.97
2018-03-30T09:47:05.869Z,6.05
2018-03-30T09:49:36.774Z,7.45
2018-03-30T09:52:07.784Z,7.03
2018-03-30T09:54:38.828Z,7.03
2018-03-30T09:57:09.804Z,6.78
2018-03-30T09:59:40.769Z,6.25
2018-03-30T10:02:11.697Z,6.40
2018-03-30T10:04:45.395Z,6.07
2018-03-30T10:07:14.575Z,6.27
2018-03-30T10:09:45.305Z,5.96
2018-03-30T10:12:15.860Z,6.30
2018-03-30T10:14:46.710Z,6.57
2018-03-30T10:17:17.794Z,5.68
2018-03-30T10:19:48.711Z,6.15
2018-03-30T10:22:19.417Z,6.92
2018-03-30T10:24:50.109Z,6.92
2018-03-30T10:27:20.884Z,7.35
2018-03-30T10:29:51.730Z,7.03
2018-03-30T10:32:22.942Z,7.30
2018-03-30T10:34:53.792Z,6.75
2018-03-30T10:37:24.804Z,5.93
2018-03-30T10:39:55.389Z,8.76
2018-03-30T10:42:26.134Z,99.60
2018-03-30T10:44:57.181Z,31.40
2018-03-30T10:47:27.083Z,19.30
2018-03-30T10:49:57.887Z,9.80
2018-03-30T10:52:28.520Z,6.96
2018-03-30T10:54:59.324Z,13.78
2018-03-30T10:57:29.836Z,12.55
2018-03-30T11:00:00.913Z,26.75
2018-03-30T11:02:31.696Z,4.90
2018-03-30T11:05:02.761Z,4.68
2018-03-30T11:07:33.738Z,4.60
2018-03-30T11:10:04.881Z,5.25
2018-03-30T11:12:35.709Z,5.50
2018-03-30T11:15:06.786Z,6.03
2018-03-30T11:17:37.680Z,5.47
2018-03-30T11:20:13.784Z,4.18
2018-03-30T11:22:42.757Z,4.40
2018-03-30T11:25:11.736Z,4.50
2018-03-30T11:27:42.443Z,4.72
2018-03-30T11:30:14.069Z,6.68
2018-03-30T11:32:44.208Z,4.70
2018-03-30T11:35:14.781Z,5.62
2018-03-30T11:37:45.816Z,3.95
2018-03-30T11:40:18.593Z,4.22
2018-03-30T11:42:48.308Z,7.25
2018-03-30T11:45:18.828Z,4.40
2018-03-30T11:47:49.803Z,4.75
2018-03-30T11:50:20.819Z,4.62
2018-03-30T11:52:51.750Z,4.28
2018-03-30T11:55:22.885Z,4.70
2018-03-30T11:57:53.716Z,4.03
2018-03-30T12:00:24.449Z,4.68
2018-03-30T12:02:55.184Z,4.88
2018-03-30T12:05:25.791Z,4.07
2018-03-30T12:07:56.830Z,7.80
2018-03-30T12:10:27.784Z,4.45
2018-03-30T12:12:58.796Z,4.00
2018-03-30T12:15:29.820Z,3.97
2018-03-30T12:18:00.693Z,5.03
2018-03-30T12:20:31.384Z,4.74
2018-03-30T12:23:02.075Z,4.30
2018-03-30T12:25:32.745Z,4.80
2018-03-30T12:28:03.856Z,14.50
2018-03-30T12:30:34.827Z,7.68
2018-03-30T12:33:05.522Z,4.95
2018-03-30T12:35:36.556Z,5.60
2018-03-30T12:38:07.294Z,4.94
2018-03-30T12:40:37.751Z,5.40
2018-03-30T12:43:08.839Z,4.40
2018-03-30T12:45:39.713Z,5.28
2018-03-30T12:48:10.830Z,4.53
2018-03-30T12:50:42.023Z,5.07
2018-03-30T12:53:12.916Z,5.28
2018-03-30T12:55:43.692Z,4.53
2018-03-30T12:58:14.444Z,4.76
2018-03-30T13:00:45.080Z,5.42
2018-03-30T13:03:15.862Z,5.10
2018-03-30T13:05:46.752Z,5.72
2018-03-30T13:08:17.808Z,5.28
2018-03-30T13:10:48.694Z,5.78
2018-03-30T13:13:19.734Z,5.30
2018-03-30T13:15:50.728Z,4.80
2018-03-30T13:18:21.784Z,5.93
2018-03-30T13:20:52.722Z,5.62
2018-03-30T13:23:23.795Z,5.82
2018-03-30T13:25:54.671Z,5.85
2018-03-30T13:28:25.793Z,5.25
2018-03-30T13:30:56.812Z,5.62
2018-03-30T13:33:27.888Z,5.47
2018-03-30T13:35:58.373Z,5.66
2018-03-30T13:38:28.901Z,5.30
2018-03-30T13:40:59.697Z,5.15
2018-03-30T13:43:30.751Z,5.40
2018-03-30T13:46:01.873Z,5.47
2018-03-30T13:48:32.782Z,7.55
2018-03-30T13:51:17.980Z,6.07
2018-03-30T13:54:01.631Z,5.10
2018-03-30T13:56:31.644Z,5.50
2018-03-30T13:59:00.069Z,5.10
2018-03-30T14:01:29.309Z,5.43
2018-03-30T14:04:00.850Z,5.57
2018-03-30T14:09:31.885Z,5.73
2018-03-30T14:12:10.019Z,5.77
2018-03-30T14:14:38.420Z,5.50
2018-03-30T14:20:07.516Z,6.03
2018-03-30T14:22:41.895Z,6.17
2018-03-30T14:25:12.724Z,13.00
2018-03-30T14:27:41.136Z,12.23
2018-03-30T14:30:13.229Z,7.00
2018-03-30T14:32:58.466Z,6.03
2018-03-30T14:35:39.200Z,5.27
2018-03-30T14:38:08.548Z,5.57
2018-03-30T14:40:48.860Z,5.93
2018-03-30T14:43:22.039Z,5.90
2018-03-30T14:46:05.402Z,6.13
2018-03-30T14:48:36.732Z,12.37
2018-03-30T14:51:13.840Z,8.10
2018-03-30T14:53:45.684Z,8.87
2018-03-30T14:56:17.222Z,9.77
2018-03-30T14:58:49.243Z,7.33
2018-03-30T15:04:38.981Z,5.10
2018-03-30T15:07:16.860Z,5.90
2018-03-30T15:09:52.794Z,7.03
2018-03-30T15:12:27.997Z,7.23
2018-03-30T15:17:57.435Z,50.90
2018-03-30T15:20:29.792Z,13.50
2018-03-30T15:23:15.774Z,17.63
2018-03-30T15:28:47.747Z,34.77
2018-03-30T15:34:21.495Z,46.20
2018-03-30T15:37:01.559Z,13.73
2018-03-30T15:39:30.057Z,7.77
2018-03-30T15:42:01.295Z,5.70
2018-03-30T15:44:30.941Z,5.45
2018-03-30T15:47:02.458Z,5.07
2018-03-30T15:49:32.125Z,5.87
2018-03-30T15:52:03.608Z,8.65
2018-03-30T15:54:31.205Z,7.17
2018-03-30T15:57:00.280Z,9.60
2018-03-30T15:59:29.246Z,7.20
2018-03-30T16:01:58.108Z,8.60
2018-03-30T16:04:26.571Z,10.03
2018-03-30T16:06:54.955Z,8.88
2018-03-30T16:09:28.095Z,8.70
2018-03-30T16:11:59.433Z,13.87
2018-03-30T16:14:27.863Z,11.82
2018-03-30T16:16:56.852Z,10.54
2018-03-30T16:19:26.299Z,7.72
2018-03-30T16:21:55.770Z,14.20
2018-03-30T16:24:25.277Z,13.82
2018-03-30T16:26:52.866Z,11.70
2018-03-30T16:29:20.681Z,13.27
2018-03-30T16:31:48.276Z,18.10
2018-03-30T16:34:15.870Z,15.10
2018-03-30T16:36:43.523Z,13.70
2018-03-30T16:39:11.356Z,15.37
2018-03-30T16:41:39.287Z,14.93
2018-03-30T16:44:07.245Z,12.13
2018-03-30T16:46:35.134Z,10.10
2018-03-30T16:49:02.752Z,9.30
2018-03-30T16:51:30.417Z,8.90
2018-03-30T16:53:58.333Z,9.73
2018-03-30T16:56:26.235Z,16.02
2018-03-30T16:58:55.771Z,16.15
2018-03-30T17:01:23.388Z,16.33
2018-03-30T17:03:51.248Z,19.70
2018-03-30T17:06:19.283Z,20.55
2018-03-30T17:08:47.343Z,13.97
2018-03-30T17:11:15.284Z,11.07
2018-03-30T17:13:43.373Z,10.10
2018-03-30T17:16:11.311Z,10.00
2018-03-30T17:18:39.247Z,11.55
2018-03-30T17:21:07.240Z,14.95
2018-03-30T17:23:35.159Z,16.50
2018-03-30T17:26:02.772Z,13.63
2018-03-30T17:28:30.445Z,13.10
2018-03-30T17:30:58.356Z,12.13
2018-03-30T17:33:26.187Z,10.97
2018-03-30T17:35:54.178Z,10.57
2018-03-30T17:38:21.799Z,10.70
2018-03-30T17:40:49.399Z,10.20
2018-03-30T17:43:17.342Z,11.60
2018-03-30T17:45:45.238Z,12.00
2018-03-30T17:48:13.144Z,14.18
2018-03-30T17:50:41.136Z,13.20
2018-03-30T17:53:09.037Z,14.43
2018-03-30T17:55:36.662Z,42.13
2018-03-30T17:58:04.323Z,39.07
2018-03-30T18:00:33.080Z,29.50
2018-03-30T18:03:00.771Z,29.43
2018-03-30T18:05:28.689Z,26.40
2018-03-30T18:07:56.312Z,25.77
2018-03-30T18:10:24.012Z,27.98
2018-03-30T18:12:51.706Z,33.47
2018-03-30T18:15:19.354Z,36.13
2018-03-30T18:17:47.483Z,31.95
2018-03-30T18:20:15.251Z,26.30
2018-03-30T18:22:42.849Z,24.70
2018-03-30T18:25:11.971Z,23.15
2018-03-30T18:27:41.371Z,21.92
2018-03-30T18:30:08.971Z,20.93
2018-03-30T18:32:36.744Z,21.83
2018-03-30T18:35:04.471Z,22.27
2018-03-30T18:37:32.276Z,21.30
2018-03-30T18:39:59.892Z,21.73
2018-03-30T18:42:27.573Z,23.40
2018-03-30T18:44:55.342Z,20.60
2018-03-30T18:47:23.370Z,23.47
2018-03-30T18:49:51.338Z,22.27
2018-03-30T18:52:19.340Z,21.50
2018-03-30T18:54:47.252Z,21.70
2018-03-30T18:57:15.270Z,22.37
2018-03-30T18:59:43.192Z,21.65
2018-03-30T19:02:10.800Z,22.30
2018-03-30T19:04:38.468Z,21.07
2018-03-30T19:07:06.346Z,24.57
2018-03-30T19:09:34.269Z,26.70
2018-03-30T19:12:02.258Z,30.77
2018-03-30T19:14:30.152Z,31.30
2018-03-30T19:16:57.819Z,32.30
2018-03-30T19:19:25.481Z,28.07
2018-03-30T19:21:53.373Z,32.40
2018-03-30T19:24:21.280Z,31.27
2018-03-30T19:26:49.247Z,28.75
2018-03-30T19:29:17.238Z,30.77
2018-03-30T19:31:45.165Z,33.53
2018-03-30T19:34:12.894Z,33.50
2018-03-30T19:36:40.539Z,35.47
2018-03-30T19:39:08.270Z,34.47
2018-03-30T19:41:36.289Z,32.70
2018-03-30T19:44:04.226Z,28.42
2018-03-30T19:46:36.536Z,24.08
2018-03-30T19:49:04.371Z,20.07
2018-03-30T19:51:32.310Z,17.53
2018-03-30T19:54:00.245Z,14.95
2018-03-30T19:56:28.255Z,14.90
2018-03-30T19:58:56.153Z,15.30
2018-03-30T20:01:24.058Z,15.45
2018-03-30T20:03:51.756Z,17.43
2018-03-30T20:06:19.365Z,17.37
2018-03-30T20:08:47.232Z,16.40
2018-03-30T20:11:15.310Z,18.12
2018-03-30T20:13:43.220Z,16.55
2018-03-30T20:16:11.189Z,17.42
2018-03-30T20:18:43.907Z,17.02
2018-03-30T20:21:15.178Z,17.40
2018-03-30T20:23:43.141Z,18.08
2018-03-30T20:26:10.760Z,18.60
2018-03-30T20:28:38.848Z,18.10
2018-03-30T20:31:06.531Z,17.67
2018-03-30T20:33:34.573Z,16.87
2018-03-30T20:36:03.875Z,16.54
2018-03-30T20:38:33.439Z,15.80
2018-03-30T20:41:02.759Z,15.93
2018-03-30T20:43:32.314Z,16.67
2018-03-30T20:46:03.589Z,15.85
2018-03-30T20:48:33.162Z,15.25
2018-03-30T20:51:01.114Z,17.67
2018-03-30T20:53:28.844Z,16.67
2018-03-30T20:55:56.463Z,17.70
2018-03-30T20:58:24.384Z,17.33
2018-03-30T21:00:52.450Z,15.27
2018-03-30T21:03:20.264Z,17.07
2018-03-30T21:05:48.180Z,16.50
2018-03-30T21:08:15.862Z,17.03
2018-03-30T21:10:43.469Z,16.87
2018-03-30T21:13:11.379Z,16.50
2018-03-30T21:15:39.347Z,17.02
2018-03-30T21:18:07.313Z,17.20
2018-03-30T21:20:35.242Z,16.80
2018-03-30T21:23:03.242Z,16.62
2018-03-30T21:25:31.172Z,15.63
2018-03-30T21:27:59.086Z,16.02
2018-03-30T21:30:26.776Z,16.00
2018-03-30T21:32:54.424Z,15.63
2018-03-30T21:35:22.240Z,17.17
2018-03-30T21:37:50.194Z,20.50
2018-03-30T21:40:17.808Z,16.33
2018-03-30T21:42:45.396Z,18.03
2018-03-30T21:45:13.422Z,19.20
2018-03-30T21:47:41.328Z,19.97
2018-03-30T21:50:09.242Z,18.23
2018-03-30T21:52:37.232Z,18.55
2018-03-30T21:55:05.144Z,17.42
2018-03-30T21:57:32.745Z,16.43
2018-03-30T22:00:00.420Z,17.43
2018-03-30T22:02:28.303Z,19.90
2018-03-30T22:04:56.233Z,20.17
2018-03-30T22:07:24.556Z,27.75
2018-03-30T22:09:52.255Z,32.10
2018-03-30T22:12:20.236Z,32.07
2018-03-30T22:14:48.188Z,28.92
2018-03-30T22:17:16.097Z,25.15
2018-03-30T22:19:43.703Z,21.47
2018-03-30T22:22:11.359Z,19.60
2018-03-30T22:24:39.247Z,19.07
2018-03-30T22:27:07.154Z,17.58
2018-03-30T22:29:35.102Z,17.12
2018-03-30T22:32:02.728Z,18.30
2018-03-30T22:34:30.549Z,17.40
2018-03-30T22:36:58.714Z,16.92
2018-03-30T22:39:26.720Z,17.15
2018-03-30T22:41:54.736Z,16.12
2018-03-30T22:44:22.784Z,16.67
2018-03-30T22:46:50.836Z,16.23
2018-03-30T22:49:19.125Z,17.02
2018-03-30T22:51:49.384Z,16.58
2018-03-30T22:54:19.117Z,16.48
2018-03-30T22:56:48.650Z,16.00
2018-03-30T22:59:18.252Z,16.58
2018-03-30T23:01:47.915Z,16.50
2018-03-30T23:04:15.813Z,16.42
2018-03-30T23:06:43.780Z,16.70
2018-03-30T23:09:11.372Z,15.93
2018-03-30T23:11:39.293Z,17.37
2018-03-30T23:14:07.337Z,16.35
2018-03-30T23:16:35.233Z,16.75
2018-03-30T23:19:03.125Z,16.52
2018-03-30T23:21:30.854Z,17.83
2018-03-30T23:23:58.516Z,17.73
2018-03-30T23:26:26.373Z,17.70
2018-03-30T23:28:54.322Z,19.35
2018-03-30T23:31:22.076Z,17.02
2018-03-30T23:33:49.924Z,17.50
2018-03-30T23:36:17.445Z,18.10
2018-03-30T23:38:45.101Z,16.67
2018-03-30T23:41:12.707Z,17.67
2018-03-30T23:43:40.383Z,18.13
2018-03-30T23:46:08.267Z,18.90
2018-03-30T23:48:36.183Z,19.50
2018-03-30T23:51:04.383Z,21.40
2018-03-30T23:53:32.213Z,19.40
2018-03-30T23:56:00.103Z,19.35
2018-03-30T23:58:27.772Z,17.90
